sensor_id;sensor_type;location;lat;lon;timestamp;P1;durP1;ratioP1;P2;durP2;ratioP2
52112;SDS011;38109;49.488;31.988;2023-06-22T00:00:54;8.07;;;5.47;;
52112;SDS011;38109;49.488;31.988;2023-06-22T00:03:21;7.68;;;5.38;;
52112;SDS011;38109;49.488;31.988;2023-06-22T00:05:49;7.97;;;5.13;;
52112;SDS011;38109;49.488;31.988;2023-06-22T00:08:15;6.50;;;4.63;;
52112;SDS011;38109;49.488;31.988;2023-06-22T00:10:42;7.70;;;5.30;;
52112;SDS011;38109;49.488;31.988;2023-06-22T00:13:08;6.82;;;5.05;;
52112;SDS011;38109;49.488;31.988;2023-06-22T00:15:35;8.20;;;5.40;;
52112;SDS011;38109;49.488;31.988;2023-06-22T00:18:03;7.80;;;4.93;;
52112;SDS011;38109;49.488;31.988;2023-06-22T00:20:29;7.20;;;5.15;;
52112;SDS011;38109;49.488;31.988;2023-06-22T00:22:55;8.52;;;5.13;;
52112;SDS011;38109;49.488;31.988;2023-06-22T00:25:22;6.75;;;4.78;;
52112;SDS011;38109;49.488;31.988;2023-06-22T00:27:48;7.90;;;5.30;;
52112;SDS011;38109;49.488;31.988;2023-06-22T00:30:17;8.50;;;5.63;;
52112;SDS011;38109;49.488;31.988;2023-06-22T00:32:43;9.75;;;5.40;;
52112;SDS011;38109;49.488;31.988;2023-06-22T00:35:10;8.13;;;5.20;;
52112;SDS011;38109;49.488;31.988;2023-06-22T00:37:39;6.93;;;5.38;;
52112;SDS011;38109;49.488;31.988;2023-06-22T00:40:08;8.20;;;5.68;;
52112;SDS011;38109;49.488;31.988;2023-06-22T00:42:36;7.40;;;5.40;;
52112;SDS011;38109;49.488;31.988;2023-06-22T00:45:04;8.52;;;5.93;;
52112;SDS011;38109;49.488;31.988;2023-06-22T00:47:30;9.43;;;6.13;;
52112;SDS011;38109;49.488;31.988;2023-06-22T00:49:56;8.88;;;5.18;;
52112;SDS011;38109;49.488;31.988;2023-06-22T00:52:22;8.75;;;5.55;;
52112;SDS011;38109;49.488;31.988;2023-06-22T00:54:52;8.98;;;5.70;;
52112;SDS011;38109;49.488;31.988;2023-06-22T00:57:18;7.97;;;5.13;;
52112;SDS011;38109;49.488;31.988;2023-06-22T00:59:46;8.02;;;5.28;;
52112;SDS011;38109;49.488;31.988;2023-06-22T01:02:13;8.75;;;6.28;;
52112;SDS011;38109;49.488;31.988;2023-06-22T01:04:40;9.15;;;5.72;;
52112;SDS011;38109;49.488;31.988;2023-06-22T01:09:36;6.43;;;4.80;;
52112;SDS011;38109;49.488;31.988;2023-06-22T01:12:44;10.38;;;5.15;;
52112;SDS011;38109;49.488;31.988;2023-06-22T01:18:11;6.65;;;4.55;;
52112;SDS011;38109;49.488;31.988;2023-06-22T01:20:39;7.18;;;4.35;;
52112;SDS011;38109;49.488;31.988;2023-06-22T01:23:08;6.45;;;4.65;;
52112;SDS011;38109;49.488;31.988;2023-06-22T01:25:47;6.78;;;4.60;;
52112;SDS011;38109;49.488;31.988;2023-06-22T01:31:19;6.05;;;3.90;;
52112;SDS011;38109;49.488;31.988;2023-06-22T01:33:53;7.47;;;4.90;;
52112;SDS011;38109;49.488;31.988;2023-06-22T01:36:20;7.80;;;5.22;;
52112;SDS011;38109;49.488;31.988;2023-06-22T01:38:48;8.57;;;4.93;;
52112;SDS011;38109;49.488;31.988;2023-06-22T01:41:14;7.07;;;4.88;;
52112;SDS011;38109;49.488;31.988;2023-06-22T01:43:42;6.57;;;4.70;;
52112;SDS011;38109;49.488;31.988;2023-06-22T01:46:08;7.82;;;5.53;;
52112;SDS011;38109;49.488;31.988;2023-06-22T01:48:34;7.15;;;5.38;;
52112;SDS011;38109;49.488;31.988;2023-06-22T01:51:00;8.27;;;5.03;;
52112;SDS011;38109;49.488;31.988;2023-06-22T01:53:27;8.60;;;5.20;;
52112;SDS011;38109;49.488;31.988;2023-06-22T01:55:53;8.63;;;5.32;;
52112;SDS011;38109;49.488;31.988;2023-06-22T01:58:19;7.65;;;5.70;;
52112;SDS011;38109;49.488;31.988;2023-06-22T02:00:56;7.95;;;5.07;;
52112;SDS011;38109;49.488;31.988;2023-06-22T02:03:34;8.73;;;5.93;;
52112;SDS011;38109;49.488;31.988;2023-06-22T02:06:05;8.60;;;5.68;;
52112;SDS011;38109;49.488;31.988;2023-06-22T02:08:39;8.13;;;5.05;;
52112;SDS011;38109;49.488;31.988;2023-06-22T02:11:07;8.65;;;5.45;;
52112;SDS011;38109;49.488;31.988;2023-06-22T02:13:36;7.20;;;5.20;;
52112;SDS011;38109;49.488;31.988;2023-06-22T02:16:03;7.60;;;5.28;;
52112;SDS011;38109;49.488;31.988;2023-06-22T02:18:29;10.82;;;5.78;;
52112;SDS011;38109;49.488;31.988;2023-06-22T02:20:54;7.53;;;5.10;;
52112;SDS011;38109;49.488;31.988;2023-06-22T02:23:20;8.15;;;5.57;;
52112;SDS011;38109;49.488;31.988;2023-06-22T02:25:46;7.03;;;5.18;;
52112;SDS011;38109;49.488;31.988;2023-06-22T02:28:12;9.57;;;5.30;;
52112;SDS011;38109;49.488;31.988;2023-06-22T02:30:37;7.93;;;5.07;;
52112;SDS011;38109;49.488;31.988;2023-06-22T02:33:03;6.82;;;4.68;;
52112;SDS011;38109;49.488;31.988;2023-06-22T02:35:29;7.28;;;5.07;;
52112;SDS011;38109;49.488;31.988;2023-06-22T02:38:00;8.48;;;5.43;;
52112;SDS011;38109;49.488;31.988;2023-06-22T02:40:27;6.75;;;4.32;;
52112;SDS011;38109;49.488;31.988;2023-06-22T02:42:59;7.95;;;5.28;;
52112;SDS011;38109;49.488;31.988;2023-06-22T02:45:32;8.50;;;5.13;;
52112;SDS011;38109;49.488;31.988;2023-06-22T02:48:00;6.68;;;4.50;;
52112;SDS011;38109;49.488;31.988;2023-06-22T02:50:29;6.32;;;4.47;;
52112;SDS011;38109;49.488;31.988;2023-06-22T02:53:17;9.38;;;5.00;;
52112;SDS011;38109;49.488;31.988;2023-06-22T02:56:08;7.57;;;5.03;;
52112;SDS011;38109;49.488;31.988;2023-06-22T03:08:57;9.95;;;5.90;;
52112;SDS011;38109;49.488;31.988;2023-06-22T03:22:29;7.05;;;4.88;;
52112;SDS011;38109;49.488;31.988;2023-06-22T03:25:42;7.28;;;4.90;;
52112;SDS011;38109;49.488;31.988;2023-06-22T03:31:54;5.78;;;4.07;;
52112;SDS011;38109;49.488;31.988;2023-06-22T03:34:19;7.35;;;4.57;;
52112;SDS011;38109;49.488;31.988;2023-06-22T03:36:48;7.57;;;4.95;;
52112;SDS011;38109;49.488;31.988;2023-06-22T03:39:26;7.60;;;4.90;;
52112;SDS011;38109;49.488;31.988;2023-06-22T03:49:07;6.47;;;4.93;;
52112;SDS011;38109;49.488;31.988;2023-06-22T03:52:23;6.63;;;4.55;;
52112;SDS011;38109;49.488;31.988;2023-06-22T04:02:48;6.30;;;4.10;;
52112;SDS011;38109;49.488;31.988;2023-06-22T04:09:27;6.50;;;4.10;;
52112;SDS011;38109;49.488;31.988;2023-06-22T04:11:53;6.53;;;4.25;;
52112;SDS011;38109;49.488;31.988;2023-06-22T04:14:26;6.70;;;4.10;;
52112;SDS011;38109;49.488;31.988;2023-06-22T04:22:44;8.30;;;4.70;;
52112;SDS011;38109;49.488;31.988;2023-06-22T04:25:51;6.78;;;4.95;;
52112;SDS011;38109;49.488;31.988;2023-06-22T04:35:28;7.85;;;5.30;;
52112;SDS011;38109;49.488;31.988;2023-06-22T04:40:57;7.93;;;5.07;;
52112;SDS011;38109;49.488;31.988;2023-06-22T04:43:26;9.20;;;5.18;;
52112;SDS011;38109;49.488;31.988;2023-06-22T04:45:55;8.65;;;5.60;;
52112;SDS011;38109;49.488;31.988;2023-06-22T04:48:28;7.82;;;5.07;;
52112;SDS011;38109;49.488;31.988;2023-06-22T04:51:04;9.02;;;5.65;;
52112;SDS011;38109;49.488;31.988;2023-06-22T04:53:30;8.52;;;5.90;;
52112;SDS011;38109;49.488;31.988;2023-06-22T04:56:14;9.20;;;5.45;;
52112;SDS011;38109;49.488;31.988;2023-06-22T04:58:52;10.52;;;6.72;;
52112;SDS011;38109;49.488;31.988;2023-06-22T05:01:25;11.77;;;7.57;;
52112;SDS011;38109;49.488;31.988;2023-06-22T05:03:51;15.32;;;7.65;;
52112;SDS011;38109;49.488;31.988;2023-06-22T05:06:25;13.23;;;7.95;;
52112;SDS011;38109;49.488;31.988;2023-06-22T05:08:54;13.15;;;8.40;;
52112;SDS011;38109;49.488;31.988;2023-06-22T05:11:28;14.07;;;8.57;;
52112;SDS011;38109;49.488;31.988;2023-06-22T05:13:59;11.25;;;7.05;;
52112;SDS011;38109;49.488;31.988;2023-06-22T05:16:24;15.05;;;7.95;;
52112;SDS011;38109;49.488;31.988;2023-06-22T05:18:54;12.43;;;7.72;;
52112;SDS011;38109;49.488;31.988;2023-06-22T05:21:21;12.20;;;7.72;;
52112;SDS011;38109;49.488;31.988;2023-06-22T05:23:48;10.93;;;6.97;;
52112;SDS011;38109;49.488;31.988;2023-06-22T05:26:16;11.05;;;6.95;;
52112;SDS011;38109;49.488;31.988;2023-06-22T05:28:42;12.32;;;7.18;;
52112;SDS011;38109;49.488;31.988;2023-06-22T05:31:11;10.23;;;5.90;;
52112;SDS011;38109;49.488;31.988;2023-06-22T05:33:44;10.02;;;6.28;;
52112;SDS011;38109;49.488;31.988;2023-06-22T05:36:13;11.63;;;6.22;;
52112;SDS011;38109;49.488;31.988;2023-06-22T05:38:52;10.27;;;6.07;;
52112;SDS011;38109;49.488;31.988;2023-06-22T05:41:18;9.13;;;5.00;;
52112;SDS011;38109;49.488;31.988;2023-06-22T05:43:43;9.32;;;4.88;;
52112;SDS011;38109;49.488;31.988;2023-06-22T05:46:09;9.85;;;4.72;;
52112;SDS011;38109;49.488;31.988;2023-06-22T05:48:35;6.10;;;3.95;;
52112;SDS011;38109;49.488;31.988;2023-06-22T05:51:01;5.28;;;3.83;;
52112;SDS011;38109;49.488;31.988;2023-06-22T05:53:26;6.03;;;3.88;;
52112;SDS011;38109;49.488;31.988;2023-06-22T05:55:52;5.53;;;3.78;;
52112;SDS011;38109;49.488;31.988;2023-06-22T05:58:18;6.10;;;3.92;;
52112;SDS011;38109;49.488;31.988;2023-06-22T06:00:43;6.70;;;4.05;;
52112;SDS011;38109;49.488;31.988;2023-06-22T06:03:09;7.80;;;4.93;;
52112;SDS011;38109;49.488;31.988;2023-06-22T06:05:36;7.75;;;4.90;;
52112;SDS011;38109;49.488;31.988;2023-06-22T06:08:03;6.95;;;4.57;;
52112;SDS011;38109;49.488;31.988;2023-06-22T06:10:31;8.77;;;5.60;;
52112;SDS011;38109;49.488;31.988;2023-06-22T06:12:57;7.80;;;4.93;;
52112;SDS011;38109;49.488;31.988;2023-06-22T06:15:23;7.32;;;4.88;;
52112;SDS011;38109;49.488;31.988;2023-06-22T06:17:52;8.85;;;5.15;;
52112;SDS011;38109;49.488;31.988;2023-06-22T06:20:19;9.63;;;6.07;;
52112;SDS011;38109;49.488;31.988;2023-06-22T06:22:46;10.85;;;6.65;;
52112;SDS011;38109;49.488;31.988;2023-06-22T06:25:14;10.07;;;6.80;;
52112;SDS011;38109;49.488;31.988;2023-06-22T06:27:49;9.48;;;6.60;;
52112;SDS011;38109;49.488;31.988;2023-06-22T06:30:16;10.63;;;6.05;;
52112;SDS011;38109;49.488;31.988;2023-06-22T06:32:43;13.60;;;6.50;;
52112;SDS011;38109;49.488;31.988;2023-06-22T06:35:11;10.02;;;5.72;;
52112;SDS011;38109;49.488;31.988;2023-06-22T06:37:38;11.73;;;7.05;;
52112;SDS011;38109;49.488;31.988;2023-06-22T06:40:07;10.13;;;6.28;;
52112;SDS011;38109;49.488;31.988;2023-06-22T06:42:35;9.98;;;6.00;;
52112;SDS011;38109;49.488;31.988;2023-06-22T06:45:04;12.45;;;6.72;;
52112;SDS011;38109;49.488;31.988;2023-06-22T06:47:30;9.98;;;6.07;;
52112;SDS011;38109;49.488;31.988;2023-06-22T06:49:56;12.38;;;6.75;;
52112;SDS011;38109;49.488;31.988;2023-06-22T06:52:21;8.48;;;5.93;;
52112;SDS011;38109;49.488;31.988;2023-06-22T06:54:47;9.15;;;6.10;;
52112;SDS011;38109;49.488;31.988;2023-06-22T06:57:12;10.55;;;6.75;;
52112;SDS011;38109;49.488;31.988;2023-06-22T06:59:40;8.52;;;5.85;;
52112;SDS011;38109;49.488;31.988;2023-06-22T07:02:06;8.82;;;5.80;;
52112;SDS011;38109;49.488;31.988;2023-06-22T07:04:32;9.02;;;5.78;;
52112;SDS011;38109;49.488;31.988;2023-06-22T07:06:58;10.77;;;6.13;;
52112;SDS011;38109;49.488;31.988;2023-06-22T07:09:26;7.32;;;4.97;;
52112;SDS011;38109;49.488;31.988;2023-06-22T07:11:52;9.02;;;5.68;;
52112;SDS011;38109;49.488;31.988;2023-06-22T07:14:18;6.70;;;4.95;;
52112;SDS011;38109;49.488;31.988;2023-06-22T07:16:43;11.05;;;6.40;;
52112;SDS011;38109;49.488;31.988;2023-06-22T07:19:11;8.25;;;5.32;;
52112;SDS011;38109;49.488;31.988;2023-06-22T07:21:37;9.13;;;6.22;;
52112;SDS011;38109;49.488;31.988;2023-06-22T07:24:04;7.82;;;5.32;;
52112;SDS011;38109;49.488;31.988;2023-06-22T07:26:31;9.15;;;5.75;;
52112;SDS011;38109;49.488;31.988;2023-06-22T07:28:57;9.20;;;5.78;;
52112;SDS011;38109;49.488;31.988;2023-06-22T07:31:25;8.50;;;5.05;;
52112;SDS011;38109;49.488;31.988;2023-06-22T07:33:51;8.00;;;5.18;;
52112;SDS011;38109;49.488;31.988;2023-06-22T07:36:17;8.70;;;5.63;;
52112;SDS011;38109;49.488;31.988;2023-06-22T07:38:43;8.82;;;6.00;;
52112;SDS011;38109;49.488;31.988;2023-06-22T07:41:09;8.25;;;5.30;;
52112;SDS011;38109;49.488;31.988;2023-06-22T07:43:35;8.65;;;5.50;;
52112;SDS011;38109;49.488;31.988;2023-06-22T07:46:05;6.88;;;5.05;;
52112;SDS011;38109;49.488;31.988;2023-06-22T07:48:31;7.40;;;5.00;;
52112;SDS011;38109;49.488;31.988;2023-06-22T07:53:32;6.85;;;4.90;;
52112;SDS011;38109;49.488;31.988;2023-06-22T07:55:58;7.43;;;4.57;;
52112;SDS011;38109;49.488;31.988;2023-06-22T07:58:24;7.32;;;4.55;;
52112;SDS011;38109;49.488;31.988;2023-06-22T08:03:30;9.27;;;5.88;;
52112;SDS011;38109;49.488;31.988;2023-06-22T08:08:53;8.63;;;5.78;;
52112;SDS011;38109;49.488;31.988;2023-06-22T08:11:22;7.82;;;4.90;;
52112;SDS011;38109;49.488;31.988;2023-06-22T08:13:50;7.70;;;5.53;;
52112;SDS011;38109;49.488;31.988;2023-06-22T08:16:16;7.05;;;5.32;;
52112;SDS011;38109;49.488;31.988;2023-06-22T08:18:43;6.07;;;4.60;;
52112;SDS011;38109;49.488;31.988;2023-06-22T08:21:08;8.88;;;5.63;;
52112;SDS011;38109;49.488;31.988;2023-06-22T08:23:35;9.38;;;5.60;;
52112;SDS011;38109;49.488;31.988;2023-06-22T08:26:22;7.18;;;5.00;;
52112;SDS011;38109;49.488;31.988;2023-06-22T08:28:53;8.23;;;5.47;;
52112;SDS011;38109;49.488;31.988;2023-06-22T08:31:18;6.57;;;4.65;;
52112;SDS011;38109;49.488;31.988;2023-06-22T08:33:44;8.98;;;5.63;;
52112;SDS011;38109;49.488;31.988;2023-06-22T08:36:11;8.40;;;5.50;;
52112;SDS011;38109;49.488;31.988;2023-06-22T08:41:30;7.32;;;4.57;;
52112;SDS011;38109;49.488;31.988;2023-06-22T08:46:47;8.07;;;5.10;;
52112;SDS011;38109;49.488;31.988;2023-06-22T08:49:13;8.07;;;5.50;;
52112;SDS011;38109;49.488;31.988;2023-06-22T08:51:40;7.72;;;4.80;;
52112;SDS011;38109;49.488;31.988;2023-06-22T08:54:05;7.30;;;4.88;;
52112;SDS011;38109;49.488;31.988;2023-06-22T08:59:06;7.25;;;4.88;;
52112;SDS011;38109;49.488;31.988;2023-06-22T09:01:32;7.07;;;5.32;;
52112;SDS011;38109;49.488;31.988;2023-06-22T09:03:58;6.78;;;4.88;;
52112;SDS011;38109;49.488;31.988;2023-06-22T09:06:25;7.00;;;4.57;;
52112;SDS011;38109;49.488;31.988;2023-06-22T09:14:06;6.97;;;4.80;;
52112;SDS011;38109;49.488;31.988;2023-06-22T09:16:34;6.53;;;4.57;;
52112;SDS011;38109;49.488;31.988;2023-06-22T09:19:00;6.85;;;4.80;;
52112;SDS011;38109;49.488;31.988;2023-06-22T09:21:26;6.07;;;4.75;;
52112;SDS011;38109;49.488;31.988;2023-06-22T09:23:52;6.80;;;4.68;;
52112;SDS011;38109;49.488;31.988;2023-06-22T09:26:18;6.60;;;4.65;;
52112;SDS011;38109;49.488;31.988;2023-06-22T09:28:44;7.18;;;4.22;;
52112;SDS011;38109;49.488;31.988;2023-06-22T09:31:19;6.95;;;5.07;;
52112;SDS011;38109;49.488;31.988;2023-06-22T09:33:51;6.07;;;4.22;;
52112;SDS011;38109;49.488;31.988;2023-06-22T09:36:18;6.10;;;4.57;;
52112;SDS011;38109;49.488;31.988;2023-06-22T09:38:48;6.90;;;4.63;;
52112;SDS011;38109;49.488;31.988;2023-06-22T09:41:20;6.95;;;4.38;;
52112;SDS011;38109;49.488;31.988;2023-06-22T09:43:45;6.97;;;4.40;;
52112;SDS011;38109;49.488;31.988;2023-06-22T09:46:12;5.82;;;4.28;;
52112;SDS011;38109;49.488;31.988;2023-06-22T09:48:38;5.97;;;4.35;;
52112;SDS011;38109;49.488;31.988;2023-06-22T09:51:04;5.70;;;4.20;;
52112;SDS011;38109;49.488;31.988;2023-06-22T09:53:29;6.10;;;4.53;;
52112;SDS011;38109;49.488;31.988;2023-06-22T09:55:55;6.05;;;4.47;;
52112;SDS011;38109;49.488;31.988;2023-06-22T09:58:22;5.72;;;3.78;;
52112;SDS011;38109;49.488;31.988;2023-06-22T10:00:48;5.75;;;3.80;;
52112;SDS011;38109;49.488;31.988;2023-06-22T10:03:13;6.63;;;4.38;;
52112;SDS011;38109;49.488;31.988;2023-06-22T10:05:39;4.72;;;4.10;;
52112;SDS011;38109;49.488;31.988;2023-06-22T10:08:05;5.32;;;3.85;;
52112;SDS011;38109;49.488;31.988;2023-06-22T10:10:33;5.45;;;4.07;;
52112;SDS011;38109;49.488;31.988;2023-06-22T10:13:08;4.97;;;3.70;;
52112;SDS011;38109;49.488;31.988;2023-06-22T10:15:45;5.38;;;3.78;;
52112;SDS011;38109;49.488;31.988;2023-06-22T10:18:15;8.15;;;3.78;;
52112;SDS011;38109;49.488;31.988;2023-06-22T10:20:46;5.20;;;3.45;;
52112;SDS011;38109;49.488;31.988;2023-06-22T10:23:16;6.25;;;3.97;;
52112;SDS011;38109;49.488;31.988;2023-06-22T10:25:42;4.00;;;3.13;;
52112;SDS011;38109;49.488;31.988;2023-06-22T10:28:10;3.38;;;2.88;;
52112;SDS011;38109;49.488;31.988;2023-06-22T10:30:40;6.60;;;3.45;;
52112;SDS011;38109;49.488;31.988;2023-06-22T10:33:12;7.78;;;2.90;;
52112;SDS011;38109;49.488;31.988;2023-06-22T10:35:38;4.38;;;3.00;;
52112;SDS011;38109;49.488;31.988;2023-06-22T10:38:04;6.55;;;4.05;;
52112;SDS011;38109;49.488;31.988;2023-06-22T10:40:30;5.78;;;3.95;;
52112;SDS011;38109;49.488;31.988;2023-06-22T10:42:56;5.60;;;3.80;;
52112;SDS011;38109;49.488;31.988;2023-06-22T10:45:22;5.03;;;3.90;;
52112;SDS011;38109;49.488;31.988;2023-06-22T10:47:48;4.88;;;3.58;;
52112;SDS011;38109;49.488;31.988;2023-06-22T10:50:13;5.10;;;3.20;;
52112;SDS011;38109;49.488;31.988;2023-06-22T10:52:39;4.85;;;3.08;;
52112;SDS011;38109;49.488;31.988;2023-06-22T10:55:07;4.00;;;3.25;;
52112;SDS011;38109;49.488;31.988;2023-06-22T10:57:33;4.75;;;3.30;;
52112;SDS011;38109;49.488;31.988;2023-06-22T10:59:59;4.20;;;2.92;;
52112;SDS011;38109;49.488;31.988;2023-06-22T11:02:25;5.65;;;3.10;;
52112;SDS011;38109;49.488;31.988;2023-06-22T11:04:53;6.43;;;3.58;;
52112;SDS011;38109;49.488;31.988;2023-06-22T11:07:18;3.75;;;3.28;;
52112;SDS011;38109;49.488;31.988;2023-06-22T11:09:44;5.32;;;3.50;;
52112;SDS011;38109;49.488;31.988;2023-06-22T11:12:10;5.28;;;3.80;;
52112;SDS011;38109;49.488;31.988;2023-06-22T11:14:40;5.65;;;3.92;;
52112;SDS011;38109;49.488;31.988;2023-06-22T11:17:06;5.75;;;3.95;;
52112;SDS011;38109;49.488;31.988;2023-06-22T11:19:32;5.18;;;4.03;;
52112;SDS011;38109;49.488;31.988;2023-06-22T11:21:57;6.75;;;4.10;;
52112;SDS011;38109;49.488;31.988;2023-06-22T11:24:23;6.55;;;4.45;;
52112;SDS011;38109;49.488;31.988;2023-06-22T11:26:49;5.15;;;3.97;;
52112;SDS011;38109;49.488;31.988;2023-06-22T11:29:14;6.38;;;4.13;;
52112;SDS011;38109;49.488;31.988;2023-06-22T11:31:40;5.35;;;3.80;;
52112;SDS011;38109;49.488;31.988;2023-06-22T11:34:07;4.80;;;3.30;;
52112;SDS011;38109;49.488;31.988;2023-06-22T11:36:33;4.97;;;3.40;;
52112;SDS011;38109;49.488;31.988;2023-06-22T11:39:00;4.68;;;3.72;;
52112;SDS011;38109;49.488;31.988;2023-06-22T11:41:26;5.10;;;3.47;;
52112;SDS011;38109;49.488;31.988;2023-06-22T11:43:52;5.10;;;3.70;;
52112;SDS011;38109;49.488;31.988;2023-06-22T11:46:17;5.13;;;3.63;;
52112;SDS011;38109;49.488;31.988;2023-06-22T11:48:43;5.03;;;3.63;;
52112;SDS011;38109;49.488;31.988;2023-06-22T11:51:09;4.75;;;3.33;;
52112;SDS011;38109;49.488;31.988;2023-06-22T11:53:35;4.07;;;3.10;;
52112;SDS011;38109;49.488;31.988;2023-06-22T11:56:11;4.80;;;3.20;;
52112;SDS011;38109;49.488;31.988;2023-06-22T11:58:36;4.78;;;3.60;;
52112;SDS011;38109;49.488;31.988;2023-06-22T12:01:02;4.32;;;3.50;;
52112;SDS011;38109;49.488;31.988;2023-06-22T12:03:27;3.83;;;3.08;;
52112;SDS011;38109;49.488;31.988;2023-06-22T12:05:54;6.45;;;3.28;;
52112;SDS011;38109;49.488;31.988;2023-06-22T12:08:19;4.55;;;3.22;;
52112;SDS011;38109;49.488;31.988;2023-06-22T12:10:46;6.03;;;2.72;;
52112;SDS011;38109;49.488;31.988;2023-06-22T12:13:11;2.88;;;2.42;;
52112;SDS011;38109;49.488;31.988;2023-06-22T12:15:39;3.25;;;2.65;;
52112;SDS011;38109;49.488;31.988;2023-06-22T12:18:05;2.80;;;2.20;;
52112;SDS011;38109;49.488;31.988;2023-06-22T12:20:31;2.92;;;2.47;;
52112;SDS011;38109;49.488;31.988;2023-06-22T12:22:57;2.63;;;2.30;;
52112;SDS011;38109;49.488;31.988;2023-06-22T12:25:23;3.85;;;2.25;;
52112;SDS011;38109;49.488;31.988;2023-06-22T12:27:49;2.95;;;2.30;;
52112;SDS011;38109;49.488;31.988;2023-06-22T12:30:15;3.15;;;2.35;;
52112;SDS011;38109;49.488;31.988;2023-06-22T12:32:41;2.13;;;1.92;;
52112;SDS011;38109;49.488;31.988;2023-06-22T12:35:07;3.17;;;2.50;;
52112;SDS011;38109;49.488;31.988;2023-06-22T12:37:38;3.83;;;2.60;;
52112;SDS011;38109;49.488;31.988;2023-06-22T12:40:05;3.03;;;2.38;;
52112;SDS011;38109;49.488;31.988;2023-06-22T12:42:31;2.97;;;2.22;;
52112;SDS011;38109;49.488;31.988;2023-06-22T12:44:57;3.45;;;2.35;;
52112;SDS011;38109;49.488;31.988;2023-06-22T12:47:23;2.35;;;2.08;;
52112;SDS011;38109;49.488;31.988;2023-06-22T12:49:48;2.50;;;2.30;;
52112;SDS011;38109;49.488;31.988;2023-06-22T12:52:14;3.10;;;2.40;;
52112;SDS011;38109;49.488;31.988;2023-06-22T12:54:40;2.75;;;2.13;;
52112;SDS011;38109;49.488;31.988;2023-06-22T12:57:05;3.72;;;2.97;;
52112;SDS011;38109;49.488;31.988;2023-06-22T12:59:31;3.60;;;3.05;;
52112;SDS011;38109;49.488;31.988;2023-06-22T13:01:57;3.78;;;3.00;;
52112;SDS011;38109;49.488;31.988;2023-06-22T13:04:22;3.03;;;2.72;;
52112;SDS011;38109;49.488;31.988;2023-06-22T13:06:48;3.58;;;2.92;;
52112;SDS011;38109;49.488;31.988;2023-06-22T13:09:15;3.53;;;2.78;;
52112;SDS011;38109;49.488;31.988;2023-06-22T13:11:42;3.95;;;3.03;;
52112;SDS011;38109;49.488;31.988;2023-06-22T13:14:08;4.32;;;3.05;;
52112;SDS011;38109;49.488;31.988;2023-06-22T13:16:34;3.80;;;2.70;;
52112;SDS011;38109;49.488;31.988;2023-06-22T13:19:02;4.65;;;3.17;;
52112;SDS011;38109;49.488;31.988;2023-06-22T13:21:28;3.95;;;2.70;;
52112;SDS011;38109;49.488;31.988;2023-06-22T13:23:59;3.77;;;2.63;;
52112;SDS011;38109;49.488;31.988;2023-06-22T13:26:25;2.28;;;2.08;;
52112;SDS011;38109;49.488;31.988;2023-06-22T13:28:54;2.95;;;2.47;;
52112;SDS011;38109;49.488;31.988;2023-06-22T13:31:19;3.13;;;2.25;;
52112;SDS011;38109;49.488;31.988;2023-06-22T13:33:46;3.03;;;2.35;;
52112;SDS011;38109;49.488;31.988;2023-06-22T13:36:14;3.67;;;2.28;;
52112;SDS011;38109;49.488;31.988;2023-06-22T13:38:40;4.00;;;2.65;;
52112;SDS011;38109;49.488;31.988;2023-06-22T13:41:06;2.40;;;2.10;;
52112;SDS011;38109;49.488;31.988;2023-06-22T13:43:31;2.33;;;2.03;;
52112;SDS011;38109;49.488;31.988;2023-06-22T13:45:58;3.38;;;2.42;;
52112;SDS011;38109;49.488;31.988;2023-06-22T13:48:24;3.05;;;2.50;;
52112;SDS011;38109;49.488;31.988;2023-06-22T13:50:51;2.55;;;2.10;;
52112;SDS011;38109;49.488;31.988;2023-06-22T13:53:17;2.22;;;2.00;;
52112;SDS011;38109;49.488;31.988;2023-06-22T13:55:43;3.90;;;2.40;;
52112;SDS011;38109;49.488;31.988;2023-06-22T13:58:09;2.60;;;2.15;;
52112;SDS011;38109;49.488;31.988;2023-06-22T14:00:34;2.97;;;2.20;;
52112;SDS011;38109;49.488;31.988;2023-06-22T14:03:00;2.78;;;2.20;;
52112;SDS011;38109;49.488;31.988;2023-06-22T14:05:26;3.92;;;2.60;;
52112;SDS011;38109;49.488;31.988;2023-06-22T14:07:51;2.20;;;2.00;;
52112;SDS011;38109;49.488;31.988;2023-06-22T14:10:17;2.50;;;2.00;;
52112;SDS011;38109;49.488;31.988;2023-06-22T14:12:43;3.08;;;2.20;;
52112;SDS011;38109;49.488;31.988;2023-06-22T14:15:09;2.60;;;2.10;;
52112;SDS011;38109;49.488;31.988;2023-06-22T14:17:35;2.35;;;2.05;;
52112;SDS011;38109;49.488;31.988;2023-06-22T14:20:01;2.78;;;2.25;;
52112;SDS011;38109;49.488;31.988;2023-06-22T14:22:27;3.20;;;2.50;;
52112;SDS011;38109;49.488;31.988;2023-06-22T14:24:54;3.67;;;2.65;;
52112;SDS011;38109;49.488;31.988;2023-06-22T14:27:22;2.40;;;1.92;;
52112;SDS011;38109;49.488;31.988;2023-06-22T14:29:48;2.53;;;2.30;;
52112;SDS011;38109;49.488;31.988;2023-06-22T14:32:14;2.50;;;2.00;;
52112;SDS011;38109;49.488;31.988;2023-06-22T14:34:39;3.25;;;2.28;;
52112;SDS011;38109;49.488;31.988;2023-06-22T14:37:06;3.05;;;2.25;;
52112;SDS011;38109;49.488;31.988;2023-06-22T14:39:32;2.65;;;2.30;;
52112;SDS011;38109;49.488;31.988;2023-06-22T14:41:58;2.60;;;2.20;;
52112;SDS011;38109;49.488;31.988;2023-06-22T14:53:01;3.95;;;2.00;;
52112;SDS011;38109;49.488;31.988;2023-06-22T14:55:45;2.28;;;1.95;;
52112;SDS011;38109;49.488;31.988;2023-06-22T14:58:26;2.13;;;1.92;;
52112;SDS011;38109;49.488;31.988;2023-06-22T15:06:53;2.97;;;1.98;;
52112;SDS011;38109;49.488;31.988;2023-06-22T15:09:21;2.72;;;2.20;;
52112;SDS011;38109;49.488;31.988;2023-06-22T15:11:47;3.92;;;2.30;;
52112;SDS011;38109;49.488;31.988;2023-06-22T15:14:15;3.67;;;2.20;;
52112;SDS011;38109;49.488;31.988;2023-06-22T15:16:40;2.88;;;2.20;;
52112;SDS011;38109;49.488;31.988;2023-06-22T15:19:06;2.65;;;2.20;;
52112;SDS011;38109;49.488;31.988;2023-06-22T15:21:34;2.78;;;2.30;;
52112;SDS011;38109;49.488;31.988;2023-06-22T15:24:00;3.88;;;2.20;;
52112;SDS011;38109;49.488;31.988;2023-06-22T15:26:25;2.88;;;2.25;;
52112;SDS011;38109;49.488;31.988;2023-06-22T15:28:51;2.08;;;1.90;;
52112;SDS011;38109;49.488;31.988;2023-06-22T15:31:17;3.65;;;2.30;;
52112;SDS011;38109;49.488;31.988;2023-06-22T15:33:42;2.97;;;2.60;;
52112;SDS011;38109;49.488;31.988;2023-06-22T15:36:08;2.88;;;2.35;;
52112;SDS011;38109;49.488;31.988;2023-06-22T15:38:34;3.22;;;2.38;;
52112;SDS011;38109;49.488;31.988;2023-06-22T15:41:00;3.45;;;2.50;;
52112;SDS011;38109;49.488;31.988;2023-06-22T15:43:25;3.40;;;2.70;;
52112;SDS011;38109;49.488;31.988;2023-06-22T15:45:51;3.28;;;2.35;;
52112;SDS011;38109;49.488;31.988;2023-06-22T15:48:19;2.70;;;2.30;;
52112;SDS011;38109;49.488;31.988;2023-06-22T15:50:45;3.60;;;2.42;;
52112;SDS011;38109;49.488;31.988;2023-06-22T15:53:11;2.97;;;2.20;;
52112;SDS011;38109;49.488;31.988;2023-06-22T15:55:36;3.03;;;2.42;;
52112;SDS011;38109;49.488;31.988;2023-06-22T15:58:02;2.47;;;2.20;;
52112;SDS011;38109;49.488;31.988;2023-06-22T16:00:28;2.55;;;2.20;;
52112;SDS011;38109;49.488;31.988;2023-06-22T16:02:54;2.88;;;2.53;;
52112;SDS011;38109;49.488;31.988;2023-06-22T16:05:19;2.97;;;2.33;;
52112;SDS011;38109;49.488;31.988;2023-06-22T16:07:45;3.53;;;2.40;;
52112;SDS011;38109;49.488;31.988;2023-06-22T16:10:13;4.88;;;2.67;;
52112;SDS011;38109;49.488;31.988;2023-06-22T16:12:41;3.22;;;2.63;;
52112;SDS011;38109;49.488;31.988;2023-06-22T16:15:09;3.53;;;2.95;;
52112;SDS011;38109;49.488;31.988;2023-06-22T16:17:35;2.83;;;2.53;;
52112;SDS011;38109;49.488;31.988;2023-06-22T16:20:03;3.25;;;2.35;;
52112;SDS011;38109;49.488;31.988;2023-06-22T16:22:31;2.75;;;2.50;;